Time;durP1;ratioP1;P1;durP2;ratioP2;P2;SDS_P1;SDS_P2;PMS_P1;PMS_P2;Temp;Humidity;BMP_temperature;BMP_pressure;BME280_temperature;BME280_humidity;BME280_pressure;Samples;Min_cycle;Max_cycle;Signal;HPM_P1;HPM_P2
2022/02/01 11:43:46;;;;;;;8.70;7.72;;;;;;;;;;6272348;22;20064;-93
2022/02/01 14:51:10;;;;;;;20.63;3.47;;;;;;;;;;6303883;22;20022;-94
2022/02/01 16:06:55;;;;;;;25.63;4.63;;;;;;;;;;6243752;22;19914;-93
2022/02/01 17:03:45;;;;;;;42.90;6.97;;;;;;;;;;6300432;22;20029;-93
2022/02/01 17:06:29;;;;;;;34.33;5.47;;;;;;;;;;6300716;22;20008;-93
2022/02/01 17:09:11;;;;;;;35.20;4.78;;;;;;;;;;6250793;22;20016;-94
2022/02/01 17:12:05;;;;;;;30.10;3.78;;;;;;;;;;6268323;22;20007;-93
2022/02/01 17:23:53;;;;;;;26.38;3.50;;;;;;;;;;6303076;22;20022;-93
2022/02/01 17:26:33;;;;;;;23.35;3.42;;;;;;;;;;6280195;22;20068;-93
2022/02/01 17:29:14;;;;;;;21.80;3.28;;;;;;;;;;6280175;22;20061;-94
2022/02/01 17:31:56;;;;;;;16.35;2.42;;;;;;;;;;6279781;22;20008;-93
2022/02/01 17:34:39;;;;;;;19.95;3.08;;;;;;;;;;6280256;22;20022;-93
2022/02/01 17:37:27;;;;;;;17.33;2.85;;;;;;;;;;6302478;22;20031;-94
2022/02/01 17:40:07;;;;;;;20.33;3.38;;;;;;;;;;6279671;22;20042;-94
2022/02/01 17:43:07;;;;;;;23.88;3.95;;;;;;;;;;6274799;22;20038;-93
2022/02/01 17:46:06;;;;;;;28.42;4.10;;;;;;;;;;6279984;22;20008;-94
2022/02/01 17:48:52;;;;;;;23.88;4.18;;;;;;;;;;6277141;22;20008;-95
2022/02/01 17:57:16;;;;;;;37.73;4.60;;;;;;;;;;6302483;22;20071;-92
2022/02/01 17:59:57;;;;;;;32.85;4.57;;;;;;;;;;6281700;22;20059;-93
2022/02/01 18:03:19;;;;;;;38.42;4.65;;;;;;;;;;6280034;22;20011;-93
2022/02/01 18:06:12;;;;;;;27.48;4.57;;;;;;;;;;6303302;22;20070;-93
2022/02/01 18:08:54;;;;;;;28.13;4.03;;;;;;;;;;6280503;22;20015;-92
2022/02/01 18:15:16;;;;;;;41.53;5.47;;;;;;;;;;6154464;23;20045;-94
2022/02/01 18:17:57;;;;;;;36.95;5.20;;;;;;;;;;6151304;23;20010;-94
2022/02/01 18:20:39;;;;;;;44.20;6.40;;;;;;;;;;6151853;23;20062;-93
2022/02/01 18:23:28;;;;;;;47.47;6.60;;;;;;;;;;6151291;23;20010;-93
2022/02/01 18:28:47;;;;;;;58.87;6.83;;;;;;;;;;6268653;22;20016;-92
2022/02/01 18:31:28;;;;;;;52.40;7.15;;;;;;;;;;6249355;22;20060;-93
2022/02/01 18:34:11;;;;;;;49.15;7.32;;;;;;;;;;6250298;22;20031;-94
2022/02/01 18:36:54;;;;;;;49.80;7.50;;;;;;;;;;6258298;22;20036;-95
2022/02/01 18:45:02;;;;;;;60.40;9.18;;;;;;;;;;6305669;22;20006;-95
2022/02/01 18:47:57;;;;;;;60.72;9.57;;;;;;;;;;6280284;22;20020;-92
2022/02/01 18:54:30;;;;;;;58.20;8.52;;;;;;;;;;6305716;22;20018;-95
2022/02/01 19:00:07;;;;;;;51.53;8.67;;;;;;;;;;6232934;22;20046;-93
2022/02/01 19:06:16;;;;;;;42.85;7.32;;;;;;;;;;6304497;22;20030;-93
2022/02/01 19:11:49;;;;;;;49.88;7.25;;;;;;;;;;6302970;22;20022;-93
2022/02/01 19:14:34;;;;;;;48.22;7.13;;;;;;;;;;6280172;22;20027;-94
2022/02/01 19:17:30;;;;;;;49.97;6.93;;;;;;;;;;6268236;22;20389;-95
2022/02/01 19:20:12;;;;;;;43.13;6.13;;;;;;;;;;6280110;22;20037;-93
2022/02/01 19:28:58;;;;;;;53.72;7.15;;;;;;;;;;6303869;22;20016;-93
2022/02/01 19:31:41;;;;;;;38.75;5.72;;;;;;;;;;6278852;22;20071;-92
2022/02/01 19:34:29;;;;;;;38.05;5.85;;;;;;;;;;6266028;22;20015;-92
2022/02/01 19:37:16;;;;;;;45.30;7.13;;;;;;;;;;6278400;22;20051;-93
2022/02/01 19:39:58;;;;;;;49.10;6.30;;;;;;;;;;6277247;22;20015;-93
2022/02/01 19:46:25;;;;;;;43.13;6.70;;;;;;;;;;6302840;22;20038;-93
2022/02/01 19:49:07;;;;;;;45.17;6.90;;;;;;;;;;6280833;22;20043;-95
2022/02/01 19:52:05;;;;;;;45.38;6.55;;;;;;;;;;6280161;22;20026;-94
2022/02/01 19:54:33;;;;;;;50.67;6.93;;;;;;;;;;6279269;22;20064;-92
2022/02/01 19:57:14;;;;;;;42.30;5.95;;;;;;;;;;6277200;22;20012;-93
2022/02/01 20:00:09;;;;;;;44.28;7.43;;;;;;;;;;6280281;22;20023;-94
2022/02/01 20:02:36;;;;;;;52.38;7.70;;;;;;;;;;6278279;22;20034;-94
2022/02/01 20:05:17;;;;;;;44.45;6.15;;;;;;;;;;6261533;22;20012;-95
2022/02/01 20:07:59;;;;;;;42.50;7.38;;;;;;;;;;6279974;22;20026;-93
2022/02/01 20:14:31;;;;;;;40.63;6.53;;;;;;;;;;6304448;22;20026;-95
2022/02/01 20:17:13;;;;;;;42.45;6.10;;;;;;;;;;6275370;22;20031;-93
2022/02/01 20:26:54;;;;;;;;;;;;;;;;;;6305687;22;20034;-93
2022/02/01 20:29:35;;;;;;;37.17;5.15;;;;;;;;;;6280954;22;19914;-93
2022/02/01 20:32:37;;;;;;;38.92;4.47;;;;;;;;;;6279668;22;20041;-93
2022/02/01 20:35:05;;;;;;;35.78;5.93;;;;;;;;;;6272874;22;20008;-93
2022/02/01 20:37:35;;;;;;;40.50;5.45;;;;;;;;;;6273403;22;20064;-94
2022/02/01 20:40:12;;;;;;;30.70;4.30;;;;;;;;;;6272574;22;20125;-95
2022/02/01 20:42:52;;;;;;;45.08;5.28;;;;;;;;;;6272441;22;20012;-94
2022/02/01 20:45:47;;;;;;;33.10;5.90;;;;;;;;;;6271861;22;20008;-94
2022/02/01 20:48:27;;;;;;;40.45;5.53;;;;;;;;;;6270158;22;20028;-94
2022/02/01 20:51:05;;;;;;;44.35;4.85;;;;;;;;;;6269248;22;20103;-93
2022/02/01 20:53:35;;;;;;;40.55;5.15;;;;;;;;;;6265070;22;20182;-93
2022/02/01 20:56:03;;;;;;;41.28;4.95;;;;;;;;;;6265226;23;20028;-94
2022/02/01 20:58:31;;;;;;;50.67;6.43;;;;;;;;;;6264714;23;20047;-92
2022/02/01 21:00:58;;;;;;;44.97;5.55;;;;;;;;;;6268248;22;20030;-93
2022/02/01 21:03:39;;;;;;;40.22;5.95;;;;;;;;;;6268114;22;20028;-93
2022/02/01 21:06:06;;;;;;;39.15;4.57;;;;;;;;;;6263941;22;20040;-92
2022/02/01 21:08:34;;;;;;;41.80;5.13;;;;;;;;;;6263572;23;20038;-92
2022/02/01 21:11:16;;;;;;;28.02;4.88;;;;;;;;;;6265702;23;20092;-92
2022/02/01 21:13:43;;;;;;;36.83;5.05;;;;;;;;;;6266763;23;20026;-93
2022/02/01 21:16:12;;;;;;;29.67;5.20;;;;;;;;;;6265947;22;20016;-92
2022/02/01 21:19:13;;;;;;;35.92;4.72;;;;;;;;;;6272140;22;20096;-91
2022/02/01 21:21:42;;;;;;;38.60;5.03;;;;;;;;;;6265528;23;20024;-93
2022/02/01 21:24:11;;;;;;;32.65;4.85;;;;;;;;;;6267659;22;20012;-91
2022/02/01 21:26:40;;;;;;;40.20;5.88;;;;;;;;;;6272640;22;20080;-93
2022/02/01 21:29:38;;;;;;;37.88;5.18;;;;;;;;;;6269464;22;20072;-93
2022/02/01 21:32:18;;;;;;;33.83;5.43;;;;;;;;;;6268722;22;20055;-93
2022/02/01 21:34:46;;;;;;;36.70;5.72;;;;;;;;;;6266931;22;20043;-93
2022/02/01 21:37:55;;;;;;;32.75;4.63;;;;;;;;;;6265751;23;20048;-93
2022/02/01 21:40:22;;;;;;;37.63;5.97;;;;;;;;;;6264333;23;20020;-93
2022/02/01 21:42:51;;;;;;;39.78;5.68;;;;;;;;;;6268108;23;20072;-93
2022/02/01 21:45:19;;;;;;;58.42;7.35;;;;;;;;;;6270983;22;20034;-93
2022/02/01 21:47:46;;;;;;;46.20;5.82;;;;;;;;;;6271196;22;20028;-93
2022/02/01 21:50:13;;;;;;;42.78;5.38;;;;;;;;;;6271666;22;20020;-93
2022/02/01 21:52:41;;;;;;;34.35;5.78;;;;;;;;;;6271983;22;20024;-94
2022/02/01 21:55:40;;;;;;;44.72;6.07;;;;;;;;;;6272471;22;20012;-93
2022/02/01 21:58:08;;;;;;;51.67;5.95;;;;;;;;;;6271829;22;20025;-94
2022/02/01 22:00:36;;;;;;;46.97;5.78;;;;;;;;;;6272732;22;20218;-93
2022/02/01 22:03:03;;;;;;;54.25;6.22;;;;;;;;;;6273642;22;20031;-94
2022/02/01 22:05:49;;;;;;;40.50;5.43;;;;;;;;;;6273770;22;20012;-95
2022/02/01 22:08:17;;;;;;;39.05;5.60;;;;;;;;;;6274237;22;20026;-95
2022/02/01 22:10:44;;;;;;;45.63;6.53;;;;;;;;;;6275314;22;20016;-94
2022/02/01 22:20:02;;;;;;;39.55;5.07;;;;;;;;;;6275391;22;20153;-94
2022/02/01 22:22:30;;;;;;;37.92;5.15;;;;;;;;;;6274238;22;20028;-94
2022/02/01 22:24:58;;;;;;;39.15;5.90;;;;;;;;;;6274457;22;20076;-93
2022/02/01 22:27:26;;;;;;;28.10;4.03;;;;;;;;;;6274027;22;20068;-93
2022/02/01 22:29:59;;;;;;;32.03;5.18;;;;;;;;;;6274365;22;20039;-94
2022/02/01 22:32:29;;;;;;;35.10;5.30;;;;;;;;;;6272822;22;20040;-95
2022/02/01 22:42:31;;;;;;;41.70;5.40;;;;;;;;;;6275155;22;20080;-94
2022/02/01 22:44:58;;;;;;;36.08;5.43;;;;;;;;;;6274244;22;20012;-94
2022/02/01 22:47:33;;;;;;;37.93;5.30;;;;;;;;;;6274514;22;20035;-92
2022/02/01 22:50:03;;;;;;;49.20;7.30;;;;;;;;;;6274446;22;20040;-94
2022/02/01 22:52:32;;;;;;;47.60;5.70;;;;;;;;;;6274634;22;20016;-94
2022/02/01 22:58:35;;;;;;;46.35;5.60;;;;;;;;;;6275510;22;20028;-94
2022/02/01 23:01:04;;;;;;;50.15;6.85;;;;;;;;;;6274510;22;20012;-94
2022/02/01 23:03:31;;;;;;;34.70;5.20;;;;;;;;;;6274110;22;20023;-94
2022/02/01 23:06:33;;;;;;;45.35;5.75;;;;;;;;;;6274368;22;20016;-93
2022/02/01 23:09:20;;;;;;;37.72;5.35;;;;;;;;;;6273242;22;20012;-94
2022/02/01 23:17:59;;;;;;;50.58;6.93;;;;;;;;;;6274170;22;20043;-94
2022/02/01 23:20:26;;;;;;;41.80;6.57;;;;;;;;;;6272885;22;20043;-94
2022/02/01 23:22:54;;;;;;;52.08;7.78;;;;;;;;;;6273475;22;20030;-94
2022/02/01 23:25:31;;;;;;;33.63;4.88;;;;;;;;;;6272652;22;20016;-93
2022/02/01 23:28:03;;;;;;;44.45;6.05;;;;;;;;;;6271800;22;20067;-94
2022/02/01 23:30:30;;;;;;;46.92;6.60;;;;;;;;;;6272960;22;20016;-94
2022/02/01 23:43:38;;;;;;;25.63;5.55;;;;;;;;;;6273375;22;20052;-92
2022/02/01 23:49:11;;;;;;;12.35;2.45;;;;;;;;;;6273687;22;20008;-93
2022/02/01 23:52:24;;;;;;;12.30;2.22;;;;;;;;;;6272605;22;20004;-94
2022/02/01 23:55:06;;;;;;;20.10;2.30;;;;;;;;;;6251233;22;20004;-93
